Home
 
Morpeth (BP) AWS
Home
Latest Observations
 
Search
 
 
Information
  • Contact
  • Copyright Notice
  • Disclaimer
  • Morpeth (Berry Park), NSW
    Automatic Weather Station
    Latitude: 32°44'SLongitude: 151°40'EElevation: 8.0m

    Last update 9:15pm local on Saturday 16 December 2017

    Date/Time
    EST
    Temp Dew
    Point
    Rel
    Hum
    Max
    Temp
    MaxT
    Time
    Min
    Temp
    MinT
    Time
    Wind Max Wind Gust Rain
    since 9am
    Wind Dir Speed Gust Max
    Dir
    Max Max
    Time
    °C °C % °C   °C   kts kts kts mm
    16-Dec 21:00 25.4 18.8 67 35.2 17:18 20.4 10:18 1.0
    16-Dec 20:00 27.9 17.9 55 35.2 17:18 20.4 10:18 1.0
    16-Dec 19:00 30.1 17.0 46 35.2 17:18 20.4 10:18 1.0
    16-Dec 18:00 34.4 15.8 33 35.2 17:18 20.4 10:18 1.0
    16-Dec 17:00 34.5 17.0 36 35.1 15:51 20.4 10:18 1.0
    16-Dec 16:00 34.9 18.0 37 35.1 15:51 20.4 10:18 1.0
    16-Dec 15:00 33.9 19.0 42 34.3 14:26 20.4 10:18 1.0
    16-Dec 14:00 33.5 19.1 43 33.3 14:00 20.4 10:18 1.0
    16-Dec 13:00 30.4 19.5 52 30.7 12:55 20.4 10:18 1.0
    16-Dec 12:00 26.4 19.8 67 26.4 11:58 20.4 10:18 1.0
    16-Dec 11:00 23.7 20.4 82 23.7 11:00 20.4 10:18 1.0
    16-Dec 10:00 22.4 19.7 85 22.4 09:59 21.9 09:30 0.0
    16-Dec 09:00 22.2 19.2 83 32.1 12:27 18.7 05:17 0.0
    16-Dec 08:00 22.1 19.2 84 32.1 12:27 18.7 05:17 0.0
    16-Dec 07:00 21.1 19.2 89 32.1 12:27 18.7 05:17 0.0
    16-Dec 06:00 19.0 18.0 94 32.1 12:27 18.7 05:17 0.0
    16-Dec 05:00 19.1 17.9 93 32.1 12:27 19.0 04:37 0.0
    16-Dec 04:00 19.5 18.2 92 32.1 12:27 19.0 02:11 0.0
    16-Dec 03:00 19.7 18.5 93 32.1 12:27 19.0 02:11 0.0
    16-Dec 02:00 19.3 18.1 93 32.1 12:27 19.1 01:54 0.0
    16-Dec 01:00 19.7 18.3 92 32.1 12:27 19.4 00:54 0.0
    16-Dec 00:00 19.8 18.3 91 32.1 12:27 19.7 23:59 0.0
    15-Dec 23:00 20.8 18.9 89 32.1 12:27 20.6 22:10 0.0
    15-Dec 22:00 21.2 19.0 87 32.1 12:27 21.1 21:59 0.0
    15-Dec 21:00 22.2 19.5 85 32.1 12:27 22.1 20:51 0.0
    15-Dec 20:00 23.0 19.4 80 32.1 12:27 22.8 20:00 0.0
    15-Dec 19:00 24.8 19.5 72 32.1 12:27 24.7 19:00 0.0
    15-Dec 18:00 26.3 19.1 65 32.1 12:27 25.3 09:15 0.0
    15-Dec 17:00 28.2 18.5 56 32.1 12:27 25.3 09:15 0.0
    15-Dec 16:00 29.1 18.8 54 32.1 12:27 25.3 09:15 0.0
    15-Dec 15:00 30.3 18.6 50 32.1 12:27 25.3 09:15 0.0
    15-Dec 14:00 30.6 18.6 49 32.1 13:26 25.3 09:15 0.0
    15-Dec 13:00 31.0 18.5 48 32.1 12:27 25.3 09:15 0.0
    15-Dec 12:00 31.4 18.4 46 31.6 11:57 25.3 09:15 0.0
    15-Dec 11:00 28.6 18.4 54 29.1 10:56 25.3 09:15 0.0
    15-Dec 10:00 26.9 18.5 60 27.2 09:38 25.3 09:15 0.0
    15-Dec 09:00 25.8 18.4 64 40.8 15:43 19.3 04:57 0.0
    15-Dec 08:00 24.1 18.7 72 40.8 15:43 19.3 04:57 0.0
    15-Dec 07:00 22.4 19.0 81 40.8 15:43 19.3 04:57 0.0
    15-Dec 06:00 21.3 18.5 84 40.8 15:43 19.3 04:57 0.0
    15-Dec 05:00 19.5 17.7 90 40.8 15:43 19.3 04:57 0.0
    15-Dec 04:00 20.5 18.3 87 40.8 15:43 20.3 03:59 0.0
    15-Dec 03:00 21.4 18.8 85 40.8 15:43 21.2 02:56 0.0
    15-Dec 02:00 22.3 18.6 79 40.8 15:43 22.1 01:57 0.0
    15-Dec 01:00 22.7 17.4 72 40.8 15:43 22.5 00:58 0.0
    15-Dec 00:00 24.5 16.9 63 40.8 15:43 24.3 23:57 0.0
    14-Dec 23:00 25.2 15.1 54 40.8 15:43 24.9 22:42 0.0
    14-Dec 22:00 27.1 14.0 45 40.8 15:43 27.0 21:55 0.0
    14-Dec 21:00 29.1 13.3 38 40.8 15:43 27.5 09:02 0.0
    14-Dec 20:00 31.5 10.9 28 40.8 15:43 27.5 09:02 0.0
    14-Dec 19:00 33.5 13.1 29 40.8 15:43 27.5 09:02 0.0
    14-Dec 18:00 36.3 13.6 26 40.8 15:43 27.5 09:02 0.0
    14-Dec 17:00 38.8 15.2 25 40.8 15:43 27.5 09:02 0.0
    14-Dec 16:00 40.5 6.5 13 40.8 15:43 27.5 09:02 0.0
    14-Dec 15:00 40.3 8.0 15 40.3 14:55 27.5 09:02 0.0
    14-Dec 14:00 39.3 7.7 15 39.8 13:55 27.5 09:02 0.0
    14-Dec 13:00 39.0 9.8 18 39.3 12:58 27.5 09:02 0.0
    14-Dec 12:00 37.3 10.4 20 37.3 11:59 27.5 09:02 0.0
    14-Dec 11:00 35.2 12.8 26 35.4 10:57 27.5 09:02 0.0
    14-Dec 10:00 32.7 12.3 29 32.7 09:52 27.5 09:02 0.0
    14-Dec 09:00 27.9 15.7 47 36.5 14:19 16.8 06:19 0.0
    14-Dec 08:00 23.2 17.5 70 36.5 14:19 16.8 06:19 0.0
    14-Dec 07:00 18.7 16.9 89 36.5 14:19 16.8 06:19 0.0
    14-Dec 06:00 18.2 16.1 88 36.5 14:19 17.3 05:14 0.0
    14-Dec 05:00 18.3 15.6 85 36.5 14:19 18.1 03:26 0.0
    14-Dec 04:00 19.0 16.3 84 36.5 14:19 18.1 03:26 0.0
    14-Dec 03:00 19.9 16.2 79 36.5 14:19 19.2 02:43 0.0
    14-Dec 02:00 19.9 16.3 80 36.5 14:19 19.3 01:41 0.0
    14-Dec 01:00 21.0 16.4 75 36.5 14:19 20.6 00:36 0.0
    14-Dec 00:00 21.4 16.3 73 36.5 14:19 21.2 23:56 0.0
    13-Dec 23:00 22.1 15.7 67 36.5 14:19 22.0 22:59 0.0
    13-Dec 22:00 23.8 14.8 57 36.5 14:19 23.6 21:57 0.0

    Saturday, 16 December 2017
    © 2017 Tim Grugeon